sensor_id;sensor_type;location;lat;lon;timestamp;P1;durP1;ratioP1;P2;durP2;ratioP2
7747;SDS011;3918;42.564;23.164;2023-04-25T04:02:36;10.73;;;7.35;;
7747;SDS011;3918;42.564;23.164;2023-04-25T04:12:04;9.52;;;7.18;;
7747;SDS011;3918;42.564;23.164;2023-04-25T04:14:45;16.52;;;8.75;;
7747;SDS011;3918;42.564;23.164;2023-04-25T04:20:55;11.70;;;8.15;;
7747;SDS011;3918;42.564;23.164;2023-04-25T04:23:52;12.75;;;7.93;;
7747;SDS011;3918;42.564;23.164;2023-04-25T04:26:32;10.13;;;7.90;;
7747;SDS011;3918;42.564;23.164;2023-04-25T04:29:13;12.18;;;7.72;;
7747;SDS011;3918;42.564;23.164;2023-04-25T04:31:54;10.95;;;7.07;;
7747;SDS011;3918;42.564;23.164;2023-04-25T04:34:26;11.93;;;6.82;;
7747;SDS011;3918;42.564;23.164;2023-04-25T04:37:09;8.70;;;6.50;;
7747;SDS011;3918;42.564;23.164;2023-04-25T04:40:25;9.15;;;7.53;;
7747;SDS011;3918;42.564;23.164;2023-04-25T04:43:14;10.63;;;7.53;;
7747;SDS011;3918;42.564;23.164;2023-04-25T04:46:23;9.65;;;6.95;;
7747;SDS011;3918;42.564;23.164;2023-04-25T04:49:04;7.70;;;7.00;;
7747;SDS011;3918;42.564;23.164;2023-04-25T04:58:52;6.63;;;5.97;;
7747;SDS011;3918;42.564;23.164;2023-04-25T05:02:11;7.78;;;6.15;;
7747;SDS011;3918;42.564;23.164;2023-04-25T05:04:54;7.32;;;5.68;;
7747;SDS011;3918;42.564;23.164;2023-04-25T05:07:36;8.10;;;7.15;;
7747;SDS011;3918;42.564;23.164;2023-04-25T05:10:17;8.25;;;6.28;;
7747;SDS011;3918;42.564;23.164;2023-04-25T05:13:27;11.63;;;7.82;;
7747;SDS011;3918;42.564;23.164;2023-04-25T05:16:10;7.82;;;6.78;;
7747;SDS011;3918;42.564;23.164;2023-04-25T05:19:30;7.80;;;6.45;;
7747;SDS011;3918;42.564;23.164;2023-04-25T05:22:12;10.05;;;7.57;;
7747;SDS011;3918;42.564;23.164;2023-04-25T05:24:53;8.48;;;7.57;;
7747;SDS011;3918;42.564;23.164;2023-04-25T05:27:25;12.18;;;7.40;;
7747;SDS011;3918;42.564;23.164;2023-04-25T05:30:36;9.60;;;7.85;;
7747;SDS011;3918;42.564;23.164;2023-04-25T05:43:33;9.90;;;8.88;;
7747;SDS011;3918;42.564;23.164;2023-04-25T05:46:38;8.05;;;7.30;;
7747;SDS011;3918;42.564;23.164;2023-04-25T05:49:05;11.88;;;9.18;;
7747;SDS011;3918;42.564;23.164;2023-04-25T05:51:47;9.65;;;8.13;;
7747;SDS011;3918;42.564;23.164;2023-04-25T05:54:15;8.60;;;7.70;;
7747;SDS011;3918;42.564;23.164;2023-04-25T05:56:56;12.63;;;8.18;;
7747;SDS011;3918;42.564;23.164;2023-04-25T06:09:42;8.73;;;7.10;;
7747;SDS011;3918;42.564;23.164;2023-04-25T06:12:38;6.82;;;5.93;;
7747;SDS011;3918;42.564;23.164;2023-04-25T06:15:20;7.40;;;6.80;;
7747;SDS011;3918;42.564;23.164;2023-04-25T06:18:01;7.50;;;6.75;;
7747;SDS011;3918;42.564;23.164;2023-04-25T06:20:42;8.05;;;7.25;;
7747;SDS011;3918;42.564;23.164;2023-04-25T06:23:23;8.70;;;7.28;;
7747;SDS011;3918;42.564;23.164;2023-04-25T06:26:06;9.23;;;8.32;;
7747;SDS011;3918;42.564;23.164;2023-04-25T06:28:53;11.48;;;7.85;;
7747;SDS011;3918;42.564;23.164;2023-04-25T06:31:34;9.77;;;8.50;;
7747;SDS011;3918;42.564;23.164;2023-04-25T06:34:14;17.55;;;8.27;;
7747;SDS011;3918;42.564;23.164;2023-04-25T06:36:55;10.13;;;7.78;;
7747;SDS011;3918;42.564;23.164;2023-04-25T06:39:54;12.57;;;9.30;;
7747;SDS011;3918;42.564;23.164;2023-04-25T06:46:18;9.75;;;7.93;;
7747;SDS011;3918;42.564;23.164;2023-04-25T06:48:50;12.57;;;8.48;;
7747;SDS011;3918;42.564;23.164;2023-04-25T06:51:46;7.55;;;6.85;;
7747;SDS011;3918;42.564;23.164;2023-04-25T06:54:27;11.60;;;9.70;;
7747;SDS011;3918;42.564;23.164;2023-04-25T06:57:08;9.30;;;8.27;;
7747;SDS011;3918;42.564;23.164;2023-04-25T07:00:04;9.52;;;7.55;;
7747;SDS011;3918;42.564;23.164;2023-04-25T07:06:40;11.23;;;7.00;;
7747;SDS011;3918;42.564;23.164;2023-04-25T07:09:24;10.70;;;7.57;;
7747;SDS011;3918;42.564;23.164;2023-04-25T07:12:18;10.30;;;7.63;;
7747;SDS011;3918;42.564;23.164;2023-04-25T07:15:00;8.35;;;6.53;;
7747;SDS011;3918;42.564;23.164;2023-04-25T07:17:44;10.68;;;7.20;;
7747;SDS011;3918;42.564;23.164;2023-04-25T07:20:33;7.60;;;6.80;;
7747;SDS011;3918;42.564;23.164;2023-04-25T07:26:40;9.93;;;6.90;;
7747;SDS011;3918;42.564;23.164;2023-04-25T07:29:13;8.38;;;6.30;;
7747;SDS011;3918;42.564;23.164;2023-04-25T07:31:56;6.85;;;6.35;;
7747;SDS011;3918;42.564;23.164;2023-04-25T07:34:47;8.88;;;8.10;;
7747;SDS011;3918;42.564;23.164;2023-04-25T07:37:16;9.57;;;6.43;;
7747;SDS011;3918;42.564;23.164;2023-04-25T07:46:35;4.65;;;4.03;;
7747;SDS011;3918;42.564;23.164;2023-04-25T07:49:16;5.05;;;4.60;;
7747;SDS011;3918;42.564;23.164;2023-04-25T07:51:43;5.43;;;3.55;;
7747;SDS011;3918;42.564;23.164;2023-04-25T07:54:29;2.22;;;2.13;;
7747;SDS011;3918;42.564;23.164;2023-04-25T07:57:01;3.45;;;2.00;;
7747;SDS011;3918;42.564;23.164;2023-04-25T07:59:43;2.38;;;2.17;;
7747;SDS011;3918;42.564;23.164;2023-04-25T08:02:23;6.20;;;1.83;;
7747;SDS011;3918;42.564;23.164;2023-04-25T08:04:53;5.63;;;1.70;;
7747;SDS011;3918;42.564;23.164;2023-04-25T08:07:34;5.72;;;2.40;;
7747;SDS011;3918;42.564;23.164;2023-04-25T08:10:01;2.80;;;1.70;;
7747;SDS011;3918;42.564;23.164;2023-04-25T08:12:30;3.13;;;1.60;;
7747;SDS011;3918;42.564;23.164;2023-04-25T08:15:14;1.23;;;1.23;;
7747;SDS011;3918;42.564;23.164;2023-04-25T08:18:12;2.53;;;1.73;;
7747;SDS011;3918;42.564;23.164;2023-04-25T08:21:15;4.78;;;1.92;;
7747;SDS011;3918;42.564;23.164;2023-04-25T08:23:56;1.70;;;1.60;;
7747;SDS011;3918;42.564;23.164;2023-04-25T08:27:17;3.70;;;1.77;;
7747;SDS011;3918;42.564;23.164;2023-04-25T08:30:02;1.88;;;1.77;;
7747;SDS011;3918;42.564;23.164;2023-04-25T08:32:44;2.15;;;2.00;;
7747;SDS011;3918;42.564;23.164;2023-04-25T08:38:54;1.50;;;1.40;;
7747;SDS011;3918;42.564;23.164;2023-04-25T08:41:37;2.88;;;2.03;;
7747;SDS011;3918;42.564;23.164;2023-04-25T08:44:17;1.83;;;1.55;;
7747;SDS011;3918;42.564;23.164;2023-04-25T08:47:04;2.05;;;1.83;;
7747;SDS011;3918;42.564;23.164;2023-04-25T08:49:45;1.60;;;1.50;;
7747;SDS011;3918;42.564;23.164;2023-04-25T08:52:44;1.60;;;1.50;;
7747;SDS011;3918;42.564;23.164;2023-04-25T08:55:16;1.30;;;1.20;;
7747;SDS011;3918;42.564;23.164;2023-04-25T08:58:00;3.30;;;1.40;;
7747;SDS011;3918;42.564;23.164;2023-04-25T09:01:17;1.77;;;1.15;;
7747;SDS011;3918;42.564;23.164;2023-04-25T09:03:58;1.48;;;1.38;;
7747;SDS011;3918;42.564;23.164;2023-04-25T09:06:40;1.98;;;1.10;;
7747;SDS011;3918;42.564;23.164;2023-04-25T09:09:32;1.30;;;1.30;;
7747;SDS011;3918;42.564;23.164;2023-04-25T09:15:51;1.20;;;1.20;;
7747;SDS011;3918;42.564;23.164;2023-04-25T09:18:32;1.33;;;1.23;;
7747;SDS011;3918;42.564;23.164;2023-04-25T09:21:16;1.75;;;1.65;;
7747;SDS011;3918;42.564;23.164;2023-04-25T09:24:29;1.35;;;1.23;;
7747;SDS011;3918;42.564;23.164;2023-04-25T09:30:57;6.63;;;1.35;;
7747;SDS011;3918;42.564;23.164;2023-04-25T09:33:38;1.50;;;1.00;;
7747;SDS011;3918;42.564;23.164;2023-04-25T09:36:27;2.08;;;1.50;;
7747;SDS011;3918;42.564;23.164;2023-04-25T09:39:12;1.95;;;1.70;;
7747;SDS011;3918;42.564;23.164;2023-04-25T09:41:53;4.85;;;1.00;;
7747;SDS011;3918;42.564;23.164;2023-04-25T09:44:35;3.85;;;1.17;;
7747;SDS011;3918;42.564;23.164;2023-04-25T09:47:18;2.13;;;1.73;;
7747;SDS011;3918;42.564;23.164;2023-04-25T09:50:35;1.23;;;1.20;;
7747;SDS011;3918;42.564;23.164;2023-04-25T09:53:23;2.55;;;1.30;;
7747;SDS011;3918;42.564;23.164;2023-04-25T09:55:54;1.10;;;0.70;;
7747;SDS011;3918;42.564;23.164;2023-04-25T09:58:36;0.60;;;0.60;;
7747;SDS011;3918;42.564;23.164;2023-04-25T10:01:18;0.85;;;0.70;;
7747;SDS011;3918;42.564;23.164;2023-04-25T10:04:16;1.48;;;1.05;;
7747;SDS011;3918;42.564;23.164;2023-04-25T10:07:17;4.00;;;0.73;;
7747;SDS011;3918;42.564;23.164;2023-04-25T10:09:59;2.28;;;0.90;;
7747;SDS011;3918;42.564;23.164;2023-04-25T10:12:41;1.67;;;1.17;;
7747;SDS011;3918;42.564;23.164;2023-04-25T10:15:57;1.48;;;1.30;;
7747;SDS011;3918;42.564;23.164;2023-04-25T10:18:38;2.25;;;1.05;;
7747;SDS011;3918;42.564;23.164;2023-04-25T10:24:47;1.02;;;0.93;;
7747;SDS011;3918;42.564;23.164;2023-04-25T10:27:46;0.82;;;0.82;;
7747;SDS011;3918;42.564;23.164;2023-04-25T10:30:27;2.10;;;0.93;;
7747;SDS011;3918;42.564;23.164;2023-04-25T10:33:16;0.73;;;0.70;;
7747;SDS011;3918;42.564;23.164;2023-04-25T10:36:10;1.52;;;1.08;;
7747;SDS011;3918;42.564;23.164;2023-04-25T10:39:27;4.60;;;1.67;;
7747;SDS011;3918;42.564;23.164;2023-04-25T10:42:10;3.88;;;1.33;;
7747;SDS011;3918;42.564;23.164;2023-04-25T10:45:00;1.20;;;1.20;;
7747;SDS011;3918;42.564;23.164;2023-04-25T10:51:08;2.35;;;2.08;;
7747;SDS011;3918;42.564;23.164;2023-04-25T10:53:59;1.52;;;1.45;;
7747;SDS011;3918;42.564;23.164;2023-04-25T10:56:42;1.27;;;1.27;;
7747;SDS011;3918;42.564;23.164;2023-04-25T10:59:24;1.60;;;1.50;;
7747;SDS011;3918;42.564;23.164;2023-04-25T11:01:52;1.95;;;1.40;;
7747;SDS011;3918;42.564;23.164;2023-04-25T11:04:33;1.20;;;1.15;;
7747;SDS011;3918;42.564;23.164;2023-04-25T11:07:10;0.60;;;0.60;;
7747;SDS011;3918;42.564;23.164;2023-04-25T11:10:17;1.17;;;0.77;;
7747;SDS011;3918;42.564;23.164;2023-04-25T11:12:58;0.70;;;0.65;;
7747;SDS011;3918;42.564;23.164;2023-04-25T11:19:05;1.17;;;0.50;;
7747;SDS011;3918;42.564;23.164;2023-04-25T11:22:10;1.48;;;1.25;;
7747;SDS011;3918;42.564;23.164;2023-04-25T11:24:47;1.05;;;0.95;;
7747;SDS011;3918;42.564;23.164;2023-04-25T11:27:50;1.20;;;0.60;;
7747;SDS011;3918;42.564;23.164;2023-04-25T11:30:31;0.95;;;0.70;;
7747;SDS011;3918;42.564;23.164;2023-04-25T11:33:38;0.60;;;0.60;;
7747;SDS011;3918;42.564;23.164;2023-04-25T11:39:36;4.78;;;1.27;;
7747;SDS011;3918;42.564;23.164;2023-04-25T11:42:22;5.78;;;1.33;;
7747;SDS011;3918;42.564;23.164;2023-04-25T11:45:03;2.13;;;1.73;;
7747;SDS011;3918;42.564;23.164;2023-04-25T11:47:44;2.08;;;1.98;;
7747;SDS011;3918;42.564;23.164;2023-04-25T11:50:13;2.30;;;2.20;;
7747;SDS011;3918;42.564;23.164;2023-04-25T11:52:55;2.10;;;2.00;;
7747;SDS011;3918;42.564;23.164;2023-04-25T11:58:59;5.10;;;3.05;;
7747;SDS011;3918;42.564;23.164;2023-04-25T12:02:24;2.92;;;2.72;;
7747;SDS011;3918;42.564;23.164;2023-04-25T12:05:06;3.00;;;2.80;;
7747;SDS011;3918;42.564;23.164;2023-04-25T12:07:47;3.63;;;2.67;;
7747;SDS011;3918;42.564;23.164;2023-04-25T12:10:27;2.70;;;2.60;;
7747;SDS011;3918;42.564;23.164;2023-04-25T12:12:57;1.83;;;1.73;;
7747;SDS011;3918;42.564;23.164;2023-04-25T12:15:41;1.63;;;1.55;;
7747;SDS011;3918;42.564;23.164;2023-04-25T12:18:23;1.73;;;1.63;;
7747;SDS011;3918;42.564;23.164;2023-04-25T12:21:04;1.85;;;1.10;;
7747;SDS011;3918;42.564;23.164;2023-04-25T12:23:45;1.83;;;1.27;;
7747;SDS011;3918;42.564;23.164;2023-04-25T12:26:26;1.95;;;1.10;;
7747;SDS011;3918;42.564;23.164;2023-04-25T12:29:15;1.15;;;1.08;;
7747;SDS011;3918;42.564;23.164;2023-04-25T12:31:44;0.82;;;0.68;;
7747;SDS011;3918;42.564;23.164;2023-04-25T12:34:32;0.40;;;0.40;;
7747;SDS011;3918;42.564;23.164;2023-04-25T12:37:13;0.60;;;0.60;;
7747;SDS011;3918;42.564;23.164;2023-04-25T12:39:54;0.82;;;0.70;;
7747;SDS011;3918;42.564;23.164;2023-04-25T12:42:21;0.80;;;0.80;;
7747;SDS011;3918;42.564;23.164;2023-04-25T12:45:02;0.77;;;0.77;;
7747;SDS011;3918;42.564;23.164;2023-04-25T12:48:29;0.50;;;0.50;;
7747;SDS011;3918;42.564;23.164;2023-04-25T12:51:34;1.17;;;0.95;;
7747;SDS011;3918;42.564;23.164;2023-04-25T12:54:15;0.70;;;0.70;;
7747;SDS011;3918;42.564;23.164;2023-04-25T12:56:41;1.65;;;0.50;;
7747;SDS011;3918;42.564;23.164;2023-04-25T12:59:23;0.50;;;0.50;;
7747;SDS011;3918;42.564;23.164;2023-04-25T13:02:04;0.57;;;0.57;;
7747;SDS011;3918;42.564;23.164;2023-04-25T13:05:10;0.90;;;0.70;;
7747;SDS011;3918;42.564;23.164;2023-04-25T13:07:51;0.52;;;0.52;;
7747;SDS011;3918;42.564;23.164;2023-04-25T13:10:18;0.93;;;0.88;;
7747;SDS011;3918;42.564;23.164;2023-04-25T13:12:59;0.88;;;0.88;;
7747;SDS011;3918;42.564;23.164;2023-04-25T13:15:40;0.93;;;0.60;;
7747;SDS011;3918;42.564;23.164;2023-04-25T13:18:07;0.85;;;0.85;;
7747;SDS011;3918;42.564;23.164;2023-04-25T13:20:49;0.80;;;0.80;;
7747;SDS011;3918;42.564;23.164;2023-04-25T13:23:30;1.85;;;0.50;;
7747;SDS011;3918;42.564;23.164;2023-04-25T13:26:14;0.90;;;0.90;;
7747;SDS011;3918;42.564;23.164;2023-04-25T13:28:56;1.40;;;1.30;;
7747;SDS011;3918;42.564;23.164;2023-04-25T13:31:25;1.63;;;1.52;;
7747;SDS011;3918;42.564;23.164;2023-04-25T13:33:52;2.60;;;1.50;;
7747;SDS011;3918;42.564;23.164;2023-04-25T13:36:34;2.28;;;2.08;;
7747;SDS011;3918;42.564;23.164;2023-04-25T13:39:04;2.75;;;2.65;;
7747;SDS011;3918;42.564;23.164;2023-04-25T13:41:45;4.30;;;2.90;;
7747;SDS011;3918;42.564;23.164;2023-04-25T13:44:25;2.60;;;2.50;;
7747;SDS011;3918;42.564;23.164;2023-04-25T13:46:52;3.47;;;3.17;;
7747;SDS011;3918;42.564;23.164;2023-04-25T13:49:19;2.83;;;2.63;;
7747;SDS011;3918;42.564;23.164;2023-04-25T13:52:04;3.08;;;2.97;;
7747;SDS011;3918;42.564;23.164;2023-04-25T13:54:52;3.00;;;2.90;;
7747;SDS011;3918;42.564;23.164;2023-04-25T13:57:18;3.25;;;3.08;;
7747;SDS011;3918;42.564;23.164;2023-04-25T13:59:46;3.00;;;2.80;;
7747;SDS011;3918;42.564;23.164;2023-04-25T14:02:28;2.67;;;2.58;;
7747;SDS011;3918;42.564;23.164;2023-04-25T14:05:00;3.30;;;3.17;;
7747;SDS011;3918;42.564;23.164;2023-04-25T14:07:29;4.15;;;2.83;;
7747;SDS011;3918;42.564;23.164;2023-04-25T14:10:09;2.38;;;2.28;;
7747;SDS011;3918;42.564;23.164;2023-04-25T14:12:36;2.05;;;1.55;;
7747;SDS011;3918;42.564;23.164;2023-04-25T14:15:04;1.90;;;1.80;;
7747;SDS011;3918;42.564;23.164;2023-04-25T14:17:32;1.90;;;1.80;;
7747;SDS011;3918;42.564;23.164;2023-04-25T14:20:03;1.67;;;1.58;;
7747;SDS011;3918;42.564;23.164;2023-04-25T14:22:46;2.40;;;1.40;;
7747;SDS011;3918;42.564;23.164;2023-04-25T14:25:27;1.65;;;1.55;;
7747;SDS011;3918;42.564;23.164;2023-04-25T14:27:58;2.00;;;1.90;;
7747;SDS011;3918;42.564;23.164;2023-04-25T14:30:26;2.63;;;2.05;;
7747;SDS011;3918;42.564;23.164;2023-04-25T14:32:54;4.82;;;1.92;;
7747;SDS011;3918;42.564;23.164;2023-04-25T14:35:21;2.58;;;2.03;;
7747;SDS011;3918;42.564;23.164;2023-04-25T14:37:50;3.42;;;2.10;;
7747;SDS011;3918;42.564;23.164;2023-04-25T14:40:31;1.75;;;1.65;;
7747;SDS011;3918;42.564;23.164;2023-04-25T14:42:58;1.90;;;1.80;;
7747;SDS011;3918;42.564;23.164;2023-04-25T14:45:25;1.90;;;1.85;;
7747;SDS011;3918;42.564;23.164;2023-04-25T14:47:52;2.30;;;2.20;;
7747;SDS011;3918;42.564;23.164;2023-04-25T14:50:20;2.13;;;1.75;;
7747;SDS011;3918;42.564;23.164;2023-04-25T14:52:47;2.00;;;1.90;;
7747;SDS011;3918;42.564;23.164;2023-04-25T14:55:17;1.63;;;1.55;;
7747;SDS011;3918;42.564;23.164;2023-04-25T14:57:49;1.40;;;1.30;;
7747;SDS011;3918;42.564;23.164;2023-04-25T15:00:17;6.90;;;1.30;;
7747;SDS011;3918;42.564;23.164;2023-04-25T15:02:58;3.75;;;1.30;;
7747;SDS011;3918;42.564;23.164;2023-04-25T15:05:26;1.13;;;1.13;;
7747;SDS011;3918;42.564;23.164;2023-04-25T15:07:53;1.70;;;1.60;;
7747;SDS011;3918;42.564;23.164;2023-04-25T15:10:23;1.63;;;1.52;;
7747;SDS011;3918;42.564;23.164;2023-04-25T15:13:03;2.58;;;1.80;;
7747;SDS011;3918;42.564;23.164;2023-04-25T15:15:44;2.75;;;2.38;;
7747;SDS011;3918;42.564;23.164;2023-04-25T15:18:25;3.25;;;2.95;;
7747;SDS011;3918;42.564;23.164;2023-04-25T15:20:52;3.38;;;3.03;;
7747;SDS011;3918;42.564;23.164;2023-04-25T15:23:33;2.97;;;2.65;;
7747;SDS011;3918;42.564;23.164;2023-04-25T15:26:01;4.28;;;3.20;;
7747;SDS011;3918;42.564;23.164;2023-04-25T15:29:07;3.53;;;3.20;;
7747;SDS011;3918;42.564;23.164;2023-04-25T15:31:52;3.20;;;3.00;;
7747;SDS011;3918;42.564;23.164;2023-04-25T15:34:21;3.35;;;3.15;;
7747;SDS011;3918;42.564;23.164;2023-04-25T15:37:02;3.40;;;3.20;;
7747;SDS011;3918;42.564;23.164;2023-04-25T15:39:29;4.15;;;3.83;;
7747;SDS011;3918;42.564;23.164;2023-04-25T15:41:58;4.60;;;3.50;;
7747;SDS011;3918;42.564;23.164;2023-04-25T15:45:14;4.60;;;3.05;;
7747;SDS011;3918;42.564;23.164;2023-04-25T15:48:06;3.67;;;2.60;;
7747;SDS011;3918;42.564;23.164;2023-04-25T15:50:33;2.38;;;2.28;;
7747;SDS011;3918;42.564;23.164;2023-04-25T15:53:14;1.80;;;1.70;;
7747;SDS011;3918;42.564;23.164;2023-04-25T15:55:41;1.73;;;1.60;;
7747;SDS011;3918;42.564;23.164;2023-04-25T15:58:12;1.40;;;1.30;;
7747;SDS011;3918;42.564;23.164;2023-04-25T16:00:53;1.27;;;1.15;;
7747;SDS011;3918;42.564;23.164;2023-04-25T16:03:21;1.38;;;1.27;;
7747;SDS011;3918;42.564;23.164;2023-04-25T16:06:19;1.10;;;1.10;;
7747;SDS011;3918;42.564;23.164;2023-04-25T16:09:46;1.00;;;1.00;;
7747;SDS011;3918;42.564;23.164;2023-04-25T16:12:14;0.95;;;0.95;;
7747;SDS011;3918;42.564;23.164;2023-04-25T16:14:46;1.05;;;1.00;;
7747;SDS011;3918;42.564;23.164;2023-04-25T16:17:28;1.02;;;1.02;;
7747;SDS011;3918;42.564;23.164;2023-04-25T16:20:09;1.88;;;1.77;;
7747;SDS011;3918;42.564;23.164;2023-04-25T16:22:51;1.95;;;1.85;;
7747;SDS011;3918;42.564;23.164;2023-04-25T16:25:31;2.38;;;2.20;;
7747;SDS011;3918;42.564;23.164;2023-04-25T16:28:00;1.95;;;1.85;;
7747;SDS011;3918;42.564;23.164;2023-04-25T16:30:42;2.47;;;2.28;;
7747;SDS011;3918;42.564;23.164;2023-04-25T16:33:23;2.42;;;1.90;;
7747;SDS011;3918;42.564;23.164;2023-04-25T16:35:50;1.85;;;1.75;;
7747;SDS011;3918;42.564;23.164;2023-04-25T16:38:20;2.40;;;2.30;;
7747;SDS011;3918;42.564;23.164;2023-04-25T16:40:48;3.53;;;2.83;;
7747;SDS011;3918;42.564;23.164;2023-04-25T16:43:22;2.97;;;2.80;;
7747;SDS011;3918;42.564;23.164;2023-04-25T16:46:06;3.00;;;2.90;;
7747;SDS011;3918;42.564;23.164;2023-04-25T16:48:43;2.70;;;2.50;;
7747;SDS011;3918;42.564;23.164;2023-04-25T16:51:12;3.10;;;2.90;;
7747;SDS011;3918;42.564;23.164;2023-04-25T16:53:39;6.18;;;3.15;;
7747;SDS011;3918;42.564;23.164;2023-04-25T16:56:06;3.13;;;2.83;;
7747;SDS011;3918;42.564;23.164;2023-04-25T16:58:34;4.55;;;3.00;;
7747;SDS011;3918;42.564;23.164;2023-04-25T17:01:01;3.60;;;3.30;;
7747;SDS011;3918;42.564;23.164;2023-04-25T17:03:44;3.45;;;3.15;;
7747;SDS011;3918;42.564;23.164;2023-04-25T17:06:28;3.25;;;3.10;;
7747;SDS011;3918;42.564;23.164;2023-04-25T17:08:57;3.20;;;3.00;;
7747;SDS011;3918;42.564;23.164;2023-04-25T17:11:23;3.05;;;2.80;;
7747;SDS011;3918;42.564;23.164;2023-04-25T17:13:50;4.53;;;3.53;;
7747;SDS011;3918;42.564;23.164;2023-04-25T17:16:19;5.72;;;3.42;;
7747;SDS011;3918;42.564;23.164;2023-04-25T17:19:01;7.43;;;3.30;;
7747;SDS011;3918;42.564;23.164;2023-04-25T17:22:03;9.48;;;4.32;;
7747;SDS011;3918;42.564;23.164;2023-04-25T17:24:30;6.03;;;4.10;;
7747;SDS011;3918;42.564;23.164;2023-04-25T17:26:57;9.30;;;4.75;;
7747;SDS011;3918;42.564;23.164;2023-04-25T17:29:25;10.20;;;4.47;;
7747;SDS011;3918;42.564;23.164;2023-04-25T17:32:06;10.45;;;4.65;;
7747;SDS011;3918;42.564;23.164;2023-04-25T17:34:48;11.13;;;4.72;;
7747;SDS011;3918;42.564;23.164;2023-04-25T17:37:16;8.00;;;4.28;;
7747;SDS011;3918;42.564;23.164;2023-04-25T17:39:57;7.80;;;4.50;;
7747;SDS011;3918;42.564;23.164;2023-04-25T17:42:37;7.47;;;4.45;;
7747;SDS011;3918;42.564;23.164;2023-04-25T17:45:25;11.55;;;4.50;;
7747;SDS011;3918;42.564;23.164;2023-04-25T17:48:13;6.47;;;4.07;;
7747;SDS011;3918;42.564;23.164;2023-04-25T17:50:55;6.70;;;4.55;;
7747;SDS011;3918;42.564;23.164;2023-04-25T17:53:35;8.52;;;4.72;;
7747;SDS011;3918;42.564;23.164;2023-04-25T17:56:02;8.15;;;4.72;;
7747;SDS011;3918;42.564;23.164;2023-04-25T17:58:33;6.88;;;4.28;;
7747;SDS011;3918;42.564;23.164;2023-04-25T18:01:00;6.38;;;3.72;;
7747;SDS011;3918;42.564;23.164;2023-04-25T18:03:29;6.05;;;3.53;;
7747;SDS011;3918;42.564;23.164;2023-04-25T18:09:37;2.63;;;2.42;;
7747;SDS011;3918;42.564;23.164;2023-04-25T18:12:23;4.40;;;2.50;;
7747;SDS011;3918;42.564;23.164;2023-04-25T18:14:50;3.55;;;2.63;;
7747;SDS011;3918;42.564;23.164;2023-04-25T18:17:17;8.40;;;3.13;;
7747;SDS011;3918;42.564;23.164;2023-04-25T18:19:49;3.60;;;3.00;;
7747;SDS011;3918;42.564;23.164;2023-04-25T18:22:16;8.65;;;3.58;;
7747;SDS011;3918;42.564;23.164;2023-04-25T18:25:06;4.78;;;3.20;;
7747;SDS011;3918;42.564;23.164;2023-04-25T18:27:50;2.70;;;2.58;;
7747;SDS011;3918;42.564;23.164;2023-04-25T18:30:25;3.28;;;3.08;;
7747;SDS011;3918;42.564;23.164;2023-04-25T18:33:06;3.35;;;2.75;;
7747;SDS011;3918;42.564;23.164;2023-04-25T18:35:33;3.42;;;3.13;;
7747;SDS011;3918;42.564;23.164;2023-04-25T18:38:00;3.65;;;3.35;;
7747;SDS011;3918;42.564;23.164;2023-04-25T18:40:31;3.50;;;3.40;;
7747;SDS011;3918;42.564;23.164;2023-04-25T18:43:12;3.40;;;3.30;;
7747;SDS011;3918;42.564;23.164;2023-04-25T18:45:39;2.80;;;2.70;;
7747;SDS011;3918;42.564;23.164;2023-04-25T18:48:06;2.72;;;2.58;;
7747;SDS011;3918;42.564;23.164;2023-04-25T18:50:34;2.13;;;2.13;;
7747;SDS011;3918;42.564;23.164;2023-04-25T18:53:02;2.22;;;2.17;;
7747;SDS011;3918;42.564;23.164;2023-04-25T18:55:31;2.55;;;2.35;;
7747;SDS011;3918;42.564;23.164;2023-04-25T18:58:20;2.55;;;2.30;;
7747;SDS011;3918;42.564;23.164;2023-04-25T19:00:48;1.98;;;1.98;;
